sensor_id;sensor_type;location;lat;lon;timestamp;P1;durP1;ratioP1;P2;durP2;ratioP2
21665;SDS011;10994;45.486;9.190;2023-04-29T00:01:06;8.47;;;4.37;;
21665;SDS011;10994;45.486;9.190;2023-04-29T00:03:32;4.63;;;3.70;;
21665;SDS011;10994;45.486;9.190;2023-04-29T00:05:59;5.23;;;3.60;;
21665;SDS011;10994;45.486;9.190;2023-04-29T00:08:25;6.33;;;4.17;;
21665;SDS011;10994;45.486;9.190;2023-04-29T00:10:51;4.73;;;3.83;;
21665;SDS011;10994;45.486;9.190;2023-04-29T00:13:17;6.50;;;4.37;;
21665;SDS011;10994;45.486;9.190;2023-04-29T00:15:43;6.40;;;4.60;;
21665;SDS011;10994;45.486;9.190;2023-04-29T00:18:10;8.17;;;4.50;;
21665;SDS011;10994;45.486;9.190;2023-04-29T00:20:36;6.13;;;4.00;;
21665;SDS011;10994;45.486;9.190;2023-04-29T00:23:03;6.63;;;3.67;;
21665;SDS011;10994;45.486;9.190;2023-04-29T00:25:29;4.87;;;3.50;;
21665;SDS011;10994;45.486;9.190;2023-04-29T00:27:55;8.77;;;4.20;;
21665;SDS011;10994;45.486;9.190;2023-04-29T00:30:25;4.47;;;3.80;;
21665;SDS011;10994;45.486;9.190;2023-04-29T00:32:52;7.00;;;4.53;;
21665;SDS011;10994;45.486;9.190;2023-04-29T00:35:19;7.07;;;4.67;;
21665;SDS011;10994;45.486;9.190;2023-04-29T00:37:45;9.87;;;4.90;;
21665;SDS011;10994;45.486;9.190;2023-04-29T00:40:11;10.00;;;4.37;;
21665;SDS011;10994;45.486;9.190;2023-04-29T00:42:40;6.90;;;3.93;;
21665;SDS011;10994;45.486;9.190;2023-04-29T00:45:07;6.07;;;4.37;;
21665;SDS011;10994;45.486;9.190;2023-04-29T00:47:33;8.00;;;4.27;;
21665;SDS011;10994;45.486;9.190;2023-04-29T00:49:59;4.87;;;3.90;;
21665;SDS011;10994;45.486;9.190;2023-04-29T00:52:25;7.10;;;4.13;;
21665;SDS011;10994;45.486;9.190;2023-04-29T00:54:54;6.27;;;4.10;;
21665;SDS011;10994;45.486;9.190;2023-04-29T00:57:21;5.40;;;3.83;;
21665;SDS011;10994;45.486;9.190;2023-04-29T00:59:47;7.93;;;4.57;;
21665;SDS011;10994;45.486;9.190;2023-04-29T01:02:14;7.17;;;4.37;;
21665;SDS011;10994;45.486;9.190;2023-04-29T01:04:41;6.43;;;3.77;;
21665;SDS011;10994;45.486;9.190;2023-04-29T01:15:03;6.70;;;3.93;;
21665;SDS011;10994;45.486;9.190;2023-04-29T01:17:35;5.27;;;4.17;;
21665;SDS011;10994;45.486;9.190;2023-04-29T01:20:03;6.30;;;4.00;;
21665;SDS011;10994;45.486;9.190;2023-04-29T01:22:29;7.27;;;4.30;;
21665;SDS011;10994;45.486;9.190;2023-04-29T01:24:55;6.83;;;3.47;;
21665;SDS011;10994;45.486;9.190;2023-04-29T01:27:36;6.33;;;4.17;;
21665;SDS011;10994;45.486;9.190;2023-04-29T01:33:00;9.20;;;4.37;;
21665;SDS011;10994;45.486;9.190;2023-04-29T01:38:16;5.73;;;4.43;;
21665;SDS011;10994;45.486;9.190;2023-04-29T01:40:51;6.03;;;4.20;;
21665;SDS011;10994;45.486;9.190;2023-04-29T01:43:27;7.27;;;4.60;;
21665;SDS011;10994;45.486;9.190;2023-04-29T01:46:09;5.37;;;4.83;;
21665;SDS011;10994;45.486;9.190;2023-04-29T01:48:36;8.90;;;5.60;;
21665;SDS011;10994;45.486;9.190;2023-04-29T01:51:02;7.17;;;4.90;;
21665;SDS011;10994;45.486;9.190;2023-04-29T01:53:30;4.90;;;4.40;;
21665;SDS011;10994;45.486;9.190;2023-04-29T01:55:56;10.70;;;5.70;;
21665;SDS011;10994;45.486;9.190;2023-04-29T01:58:30;7.57;;;5.47;;
21665;SDS011;10994;45.486;9.190;2023-04-29T02:01:20;6.50;;;4.93;;
21665;SDS011;10994;45.486;9.190;2023-04-29T02:03:46;11.07;;;4.73;;
21665;SDS011;10994;45.486;9.190;2023-04-29T02:06:13;6.90;;;4.57;;
21665;SDS011;10994;45.486;9.190;2023-04-29T02:08:39;6.53;;;4.67;;
21665;SDS011;10994;45.486;9.190;2023-04-29T02:11:05;6.97;;;5.20;;
21665;SDS011;10994;45.486;9.190;2023-04-29T02:13:36;8.73;;;5.00;;
21665;SDS011;10994;45.486;9.190;2023-04-29T02:16:06;6.77;;;5.20;;
21665;SDS011;10994;45.486;9.190;2023-04-29T02:18:33;4.83;;;4.33;;
21665;SDS011;10994;45.486;9.190;2023-04-29T02:20:59;9.33;;;4.83;;
21665;SDS011;10994;45.486;9.190;2023-04-29T02:23:26;6.83;;;4.30;;
21665;SDS011;10994;45.486;9.190;2023-04-29T02:25:52;6.23;;;4.47;;
21665;SDS011;10994;45.486;9.190;2023-04-29T02:28:18;6.63;;;5.10;;
21665;SDS011;10994;45.486;9.190;2023-04-29T02:30:44;7.07;;;5.07;;
21665;SDS011;10994;45.486;9.190;2023-04-29T02:33:10;6.83;;;4.63;;
21665;SDS011;10994;45.486;9.190;2023-04-29T02:35:36;7.30;;;4.73;;
21665;SDS011;10994;45.486;9.190;2023-04-29T02:38:02;7.50;;;4.70;;
21665;SDS011;10994;45.486;9.190;2023-04-29T02:40:28;6.53;;;4.77;;
21665;SDS011;10994;45.486;9.190;2023-04-29T02:42:54;5.50;;;4.47;;
21665;SDS011;10994;45.486;9.190;2023-04-29T02:45:20;5.97;;;4.93;;
21665;SDS011;10994;45.486;9.190;2023-04-29T02:47:47;7.77;;;4.40;;
21665;SDS011;10994;45.486;9.190;2023-04-29T02:50:13;8.03;;;5.00;;
21665;SDS011;10994;45.486;9.190;2023-04-29T02:52:39;5.87;;;4.70;;
21665;SDS011;10994;45.486;9.190;2023-04-29T02:55:08;8.97;;;4.93;;
21665;SDS011;10994;45.486;9.190;2023-04-29T02:57:34;5.37;;;4.83;;
21665;SDS011;10994;45.486;9.190;2023-04-29T03:00:00;6.17;;;4.53;;
21665;SDS011;10994;45.486;9.190;2023-04-29T03:02:27;6.87;;;4.37;;
21665;SDS011;10994;45.486;9.190;2023-04-29T03:04:56;6.53;;;4.80;;
21665;SDS011;10994;45.486;9.190;2023-04-29T03:07:22;8.87;;;4.90;;
21665;SDS011;10994;45.486;9.190;2023-04-29T03:09:50;8.23;;;6.50;;
21665;SDS011;10994;45.486;9.190;2023-04-29T03:12:17;7.50;;;5.13;;
21665;SDS011;10994;45.486;9.190;2023-04-29T03:14:44;8.43;;;5.40;;
21665;SDS011;10994;45.486;9.190;2023-04-29T03:17:11;7.10;;;5.13;;
21665;SDS011;10994;45.486;9.190;2023-04-29T03:19:38;11.20;;;5.60;;
21665;SDS011;10994;45.486;9.190;2023-04-29T03:22:05;6.63;;;5.50;;
21665;SDS011;10994;45.486;9.190;2023-04-29T03:24:32;8.03;;;5.93;;
21665;SDS011;10994;45.486;9.190;2023-04-29T03:26:58;7.43;;;5.70;;
21665;SDS011;10994;45.486;9.190;2023-04-29T03:29:25;7.27;;;5.33;;
21665;SDS011;10994;45.486;9.190;2023-04-29T03:31:51;7.50;;;5.40;;
21665;SDS011;10994;45.486;9.190;2023-04-29T03:34:18;10.47;;;4.83;;
21665;SDS011;10994;45.486;9.190;2023-04-29T03:36:53;7.30;;;5.43;;
21665;SDS011;10994;45.486;9.190;2023-04-29T03:39:20;5.53;;;4.50;;
21665;SDS011;10994;45.486;9.190;2023-04-29T03:41:46;8.13;;;5.27;;
21665;SDS011;10994;45.486;9.190;2023-04-29T03:44:13;10.10;;;5.17;;
21665;SDS011;10994;45.486;9.190;2023-04-29T03:46:40;6.13;;;5.17;;
21665;SDS011;10994;45.486;9.190;2023-04-29T03:49:06;6.70;;;5.00;;
21665;SDS011;10994;45.486;9.190;2023-04-29T03:51:32;5.40;;;4.90;;
21665;SDS011;10994;45.486;9.190;2023-04-29T03:54:10;7.13;;;5.10;;
21665;SDS011;10994;45.486;9.190;2023-04-29T03:56:37;9.43;;;5.13;;
21665;SDS011;10994;45.486;9.190;2023-04-29T03:59:03;6.40;;;5.20;;
21665;SDS011;10994;45.486;9.190;2023-04-29T04:01:30;7.63;;;5.83;;
21665;SDS011;10994;45.486;9.190;2023-04-29T04:03:56;6.73;;;5.73;;
21665;SDS011;10994;45.486;9.190;2023-04-29T04:06:22;10.23;;;6.57;;
21665;SDS011;10994;45.486;9.190;2023-04-29T04:08:50;8.57;;;5.97;;
21665;SDS011;10994;45.486;9.190;2023-04-29T04:11:20;8.73;;;6.80;;
21665;SDS011;10994;45.486;9.190;2023-04-29T04:13:54;8.80;;;6.60;;
21665;SDS011;10994;45.486;9.190;2023-04-29T04:16:22;9.60;;;6.80;;
21665;SDS011;10994;45.486;9.190;2023-04-29T04:18:48;9.83;;;6.10;;
21665;SDS011;10994;45.486;9.190;2023-04-29T04:21:14;9.30;;;6.97;;
21665;SDS011;10994;45.486;9.190;2023-04-29T04:23:45;8.13;;;6.83;;
21665;SDS011;10994;45.486;9.190;2023-04-29T04:26:16;11.77;;;6.47;;
21665;SDS011;10994;45.486;9.190;2023-04-29T04:29:03;7.30;;;5.50;;
21665;SDS011;10994;45.486;9.190;2023-04-29T04:31:38;8.37;;;5.93;;
21665;SDS011;10994;45.486;9.190;2023-04-29T04:34:07;8.27;;;6.17;;
21665;SDS011;10994;45.486;9.190;2023-04-29T04:36:33;6.60;;;5.87;;
21665;SDS011;10994;45.486;9.190;2023-04-29T04:38:59;6.63;;;6.03;;
21665;SDS011;10994;45.486;9.190;2023-04-29T04:41:25;9.80;;;6.23;;
21665;SDS011;10994;45.486;9.190;2023-04-29T04:43:52;8.57;;;6.40;;
21665;SDS011;10994;45.486;9.190;2023-04-29T04:46:27;8.23;;;6.00;;
21665;SDS011;10994;45.486;9.190;2023-04-29T04:49:11;6.97;;;5.60;;
21665;SDS011;10994;45.486;9.190;2023-04-29T04:51:44;8.20;;;5.97;;
21665;SDS011;10994;45.486;9.190;2023-04-29T04:54:10;7.03;;;5.93;;
21665;SDS011;10994;45.486;9.190;2023-04-29T04:56:37;8.60;;;6.10;;
21665;SDS011;10994;45.486;9.190;2023-04-29T04:59:04;7.83;;;5.77;;
21665;SDS011;10994;45.486;9.190;2023-04-29T05:01:32;7.87;;;5.60;;
21665;SDS011;10994;45.486;9.190;2023-04-29T05:03:58;9.90;;;5.60;;
21665;SDS011;10994;45.486;9.190;2023-04-29T05:06:25;9.43;;;5.50;;
21665;SDS011;10994;45.486;9.190;2023-04-29T05:08:51;9.40;;;6.03;;
21665;SDS011;10994;45.486;9.190;2023-04-29T05:11:17;6.53;;;5.53;;
21665;SDS011;10994;45.486;9.190;2023-04-29T05:13:51;11.63;;;5.97;;
21665;SDS011;10994;45.486;9.190;2023-04-29T05:16:17;7.70;;;5.50;;
21665;SDS011;10994;45.486;9.190;2023-04-29T05:18:45;6.20;;;5.10;;
21665;SDS011;10994;45.486;9.190;2023-04-29T05:21:12;7.90;;;5.10;;
21665;SDS011;10994;45.486;9.190;2023-04-29T05:23:38;5.50;;;4.97;;
21665;SDS011;10994;45.486;9.190;2023-04-29T05:26:04;6.73;;;5.53;;
21665;SDS011;10994;45.486;9.190;2023-04-29T05:28:30;7.77;;;4.97;;
21665;SDS011;10994;45.486;9.190;2023-04-29T05:30:57;6.67;;;5.10;;
21665;SDS011;10994;45.486;9.190;2023-04-29T05:33:23;7.90;;;4.80;;
21665;SDS011;10994;45.486;9.190;2023-04-29T05:35:49;5.83;;;4.87;;
21665;SDS011;10994;45.486;9.190;2023-04-29T05:38:15;6.70;;;4.50;;
21665;SDS011;10994;45.486;9.190;2023-04-29T05:41:01;6.60;;;5.70;;
21665;SDS011;10994;45.486;9.190;2023-04-29T05:43:39;9.23;;;5.27;;
21665;SDS011;10994;45.486;9.190;2023-04-29T05:46:06;7.07;;;5.70;;
21665;SDS011;10994;45.486;9.190;2023-04-29T05:48:32;5.67;;;5.17;;
21665;SDS011;10994;45.486;9.190;2023-04-29T05:50:58;7.77;;;5.10;;
21665;SDS011;10994;45.486;9.190;2023-04-29T05:53:24;5.43;;;4.63;;
21665;SDS011;10994;45.486;9.190;2023-04-29T05:55:51;10.17;;;5.33;;
21665;SDS011;10994;45.486;9.190;2023-04-29T05:58:19;6.33;;;5.00;;
21665;SDS011;10994;45.486;9.190;2023-04-29T06:00:45;6.50;;;4.90;;
21665;SDS011;10994;45.486;9.190;2023-04-29T06:03:18;7.20;;;5.20;;
21665;SDS011;10994;45.486;9.190;2023-04-29T06:05:45;5.10;;;4.60;;
21665;SDS011;10994;45.486;9.190;2023-04-29T06:08:28;6.60;;;4.47;;
21665;SDS011;10994;45.486;9.190;2023-04-29T06:11:01;6.23;;;5.37;;
21665;SDS011;10994;45.486;9.190;2023-04-29T06:13:29;6.47;;;5.10;;
21665;SDS011;10994;45.486;9.190;2023-04-29T06:15:55;5.30;;;4.67;;
21665;SDS011;10994;45.486;9.190;2023-04-29T06:18:22;9.90;;;5.80;;
21665;SDS011;10994;45.486;9.190;2023-04-29T06:20:48;6.17;;;5.60;;
21665;SDS011;10994;45.486;9.190;2023-04-29T06:23:14;6.47;;;5.27;;
21665;SDS011;10994;45.486;9.190;2023-04-29T06:25:40;8.10;;;5.87;;
21665;SDS011;10994;45.486;9.190;2023-04-29T06:28:08;9.47;;;6.17;;
21665;SDS011;10994;45.486;9.190;2023-04-29T06:30:35;6.10;;;5.50;;
21665;SDS011;10994;45.486;9.190;2023-04-29T06:33:01;6.47;;;5.63;;
21665;SDS011;10994;45.486;9.190;2023-04-29T06:35:27;7.63;;;5.73;;
21665;SDS011;10994;45.486;9.190;2023-04-29T06:37:56;8.67;;;6.03;;
21665;SDS011;10994;45.486;9.190;2023-04-29T06:40:40;10.73;;;6.93;;
21665;SDS011;10994;45.486;9.190;2023-04-29T06:43:27;8.60;;;6.17;;
21665;SDS011;10994;45.486;9.190;2023-04-29T06:46:19;7.70;;;5.80;;
21665;SDS011;10994;45.486;9.190;2023-04-29T06:48:56;8.90;;;6.67;;
21665;SDS011;10994;45.486;9.190;2023-04-29T06:51:22;10.20;;;6.20;;
21665;SDS011;10994;45.486;9.190;2023-04-29T06:53:49;12.43;;;7.27;;
21665;SDS011;10994;45.486;9.190;2023-04-29T06:56:18;7.67;;;6.90;;
21665;SDS011;10994;45.486;9.190;2023-04-29T06:58:46;9.07;;;7.87;;
21665;SDS011;10994;45.486;9.190;2023-04-29T07:01:12;10.70;;;8.60;;
21665;SDS011;10994;45.486;9.190;2023-04-29T07:03:38;9.23;;;7.00;;
21665;SDS011;10994;45.486;9.190;2023-04-29T07:06:04;9.20;;;6.70;;
21665;SDS011;10994;45.486;9.190;2023-04-29T07:08:30;12.70;;;7.10;;
21665;SDS011;10994;45.486;9.190;2023-04-29T07:10:57;7.87;;;6.80;;
21665;SDS011;10994;45.486;9.190;2023-04-29T07:13:24;8.27;;;6.67;;
21665;SDS011;10994;45.486;9.190;2023-04-29T07:15:50;8.90;;;7.23;;
21665;SDS011;10994;45.486;9.190;2023-04-29T07:18:16;7.93;;;7.13;;
21665;SDS011;10994;45.486;9.190;2023-04-29T07:20:42;9.20;;;7.63;;
21665;SDS011;10994;45.486;9.190;2023-04-29T07:23:08;9.47;;;7.00;;
21665;SDS011;10994;45.486;9.190;2023-04-29T07:25:35;10.63;;;7.53;;
21665;SDS011;10994;45.486;9.190;2023-04-29T07:28:02;12.23;;;7.47;;
21665;SDS011;10994;45.486;9.190;2023-04-29T07:30:29;9.67;;;7.60;;
21665;SDS011;10994;45.486;9.190;2023-04-29T07:32:55;11.47;;;7.57;;
21665;SDS011;10994;45.486;9.190;2023-04-29T07:35:22;8.60;;;7.57;;
21665;SDS011;10994;45.486;9.190;2023-04-29T07:37:48;10.07;;;7.03;;
21665;SDS011;10994;45.486;9.190;2023-04-29T07:40:14;10.27;;;8.10;;
21665;SDS011;10994;45.486;9.190;2023-04-29T07:42:41;9.93;;;7.93;;
21665;SDS011;10994;45.486;9.190;2023-04-29T07:45:07;11.07;;;8.13;;
21665;SDS011;10994;45.486;9.190;2023-04-29T07:47:33;11.50;;;8.90;;
21665;SDS011;10994;45.486;9.190;2023-04-29T07:50:00;11.30;;;8.77;;
21665;SDS011;10994;45.486;9.190;2023-04-29T07:52:26;12.23;;;9.43;;
21665;SDS011;10994;45.486;9.190;2023-04-29T07:54:52;13.43;;;9.30;;
21665;SDS011;10994;45.486;9.190;2023-04-29T07:57:20;11.30;;;9.07;;
21665;SDS011;10994;45.486;9.190;2023-04-29T07:59:49;10.33;;;9.27;;
21665;SDS011;10994;45.486;9.190;2023-04-29T08:02:16;10.30;;;8.97;;
21665;SDS011;10994;45.486;9.190;2023-04-29T08:04:42;11.63;;;8.80;;
21665;SDS011;10994;45.486;9.190;2023-04-29T08:07:11;12.47;;;9.10;;
21665;SDS011;10994;45.486;9.190;2023-04-29T08:09:37;12.30;;;9.13;;
21665;SDS011;10994;45.486;9.190;2023-04-29T08:12:04;10.47;;;9.20;;
21665;SDS011;10994;45.486;9.190;2023-04-29T08:14:30;10.77;;;8.43;;
21665;SDS011;10994;45.486;9.190;2023-04-29T08:16:58;12.37;;;8.60;;
21665;SDS011;10994;45.486;9.190;2023-04-29T08:19:24;12.23;;;9.27;;
21665;SDS011;10994;45.486;9.190;2023-04-29T08:21:50;12.43;;;9.40;;
21665;SDS011;10994;45.486;9.190;2023-04-29T08:24:16;12.93;;;8.87;;
21665;SDS011;10994;45.486;9.190;2023-04-29T08:26:42;11.87;;;8.50;;
21665;SDS011;10994;45.486;9.190;2023-04-29T08:29:08;9.93;;;8.80;;
21665;SDS011;10994;45.486;9.190;2023-04-29T08:31:35;10.00;;;8.73;;
21665;SDS011;10994;45.486;9.190;2023-04-29T08:34:01;10.20;;;8.63;;
21665;SDS011;10994;45.486;9.190;2023-04-29T08:36:27;9.83;;;8.53;;
21665;SDS011;10994;45.486;9.190;2023-04-29T08:38:54;13.00;;;8.97;;
21665;SDS011;10994;45.486;9.190;2023-04-29T08:41:20;12.17;;;9.83;;
21665;SDS011;10994;45.486;9.190;2023-04-29T08:43:47;8.77;;;7.83;;
21665;SDS011;10994;45.486;9.190;2023-04-29T08:46:13;8.30;;;7.47;;
21665;SDS011;10994;45.486;9.190;2023-04-29T08:48:39;8.97;;;7.60;;
21665;SDS011;10994;45.486;9.190;2023-04-29T08:51:06;10.37;;;7.60;;
21665;SDS011;10994;45.486;9.190;2023-04-29T08:53:32;11.27;;;7.73;;
21665;SDS011;10994;45.486;9.190;2023-04-29T08:56:07;9.03;;;8.07;;
21665;SDS011;10994;45.486;9.190;2023-04-29T08:58:34;11.37;;;7.47;;
21665;SDS011;10994;45.486;9.190;2023-04-29T09:01:01;10.97;;;7.93;;
21665;SDS011;10994;45.486;9.190;2023-04-29T09:03:30;8.97;;;7.40;;
21665;SDS011;10994;45.486;9.190;2023-04-29T09:05:59;9.10;;;7.50;;
21665;SDS011;10994;45.486;9.190;2023-04-29T09:08:26;9.17;;;6.37;;
21665;SDS011;10994;45.486;9.190;2023-04-29T09:10:52;7.53;;;6.10;;
21665;SDS011;10994;45.486;9.190;2023-04-29T09:13:22;9.77;;;7.10;;
21665;SDS011;10994;45.486;9.190;2023-04-29T09:15:49;8.00;;;6.27;;
21665;SDS011;10994;45.486;9.190;2023-04-29T09:21:05;6.93;;;6.23;;
21665;SDS011;10994;45.486;9.190;2023-04-29T09:23:37;9.27;;;6.50;;
21665;SDS011;10994;45.486;9.190;2023-04-29T09:26:03;7.90;;;5.53;;
21665;SDS011;10994;45.486;9.190;2023-04-29T09:28:29;10.43;;;6.47;;
21665;SDS011;10994;45.486;9.190;2023-04-29T09:30:55;10.17;;;6.30;;
21665;SDS011;10994;45.486;9.190;2023-04-29T09:33:21;8.60;;;6.73;;
21665;SDS011;10994;45.486;9.190;2023-04-29T09:35:47;10.23;;;6.47;;
21665;SDS011;10994;45.486;9.190;2023-04-29T09:38:14;7.07;;;6.13;;
21665;SDS011;10994;45.486;9.190;2023-04-29T09:40:41;7.83;;;5.60;;
21665;SDS011;10994;45.486;9.190;2023-04-29T09:43:14;6.70;;;5.97;;
21665;SDS011;10994;45.486;9.190;2023-04-29T09:45:43;9.77;;;5.33;;
21665;SDS011;10994;45.486;9.190;2023-04-29T09:48:10;7.23;;;5.67;;
21665;SDS011;10994;45.486;9.190;2023-04-29T09:50:37;8.57;;;6.83;;
21665;SDS011;10994;45.486;9.190;2023-04-29T09:53:07;7.33;;;6.57;;
21665;SDS011;10994;45.486;9.190;2023-04-29T09:55:57;9.17;;;6.37;;
21665;SDS011;10994;45.486;9.190;2023-04-29T09:58:26;8.97;;;6.33;;
21665;SDS011;10994;45.486;9.190;2023-04-29T10:00:54;7.63;;;6.03;;
21665;SDS011;10994;45.486;9.190;2023-04-29T10:03:21;8.33;;;6.07;;
21665;SDS011;10994;45.486;9.190;2023-04-29T10:05:47;9.07;;;6.57;;
21665;SDS011;10994;45.486;9.190;2023-04-29T10:08:14;6.53;;;5.93;;
21665;SDS011;10994;45.486;9.190;2023-04-29T10:10:40;7.40;;;6.10;;
21665;SDS011;10994;45.486;9.190;2023-04-29T10:13:06;9.77;;;6.13;;
21665;SDS011;10994;45.486;9.190;2023-04-29T10:15:37;8.23;;;6.10;;
21665;SDS011;10994;45.486;9.190;2023-04-29T10:20:39;6.80;;;5.57;;
21665;SDS011;10994;45.486;9.190;2023-04-29T10:23:06;8.60;;;5.60;;
21665;SDS011;10994;45.486;9.190;2023-04-29T10:25:33;7.57;;;6.03;;
21665;SDS011;10994;45.486;9.190;2023-04-29T10:28:00;9.23;;;6.23;;
21665;SDS011;10994;45.486;9.190;2023-04-29T10:30:28;9.67;;;6.00;;
21665;SDS011;10994;45.486;9.190;2023-04-29T10:32:55;6.37;;;5.53;;
21665;SDS011;10994;45.486;9.190;2023-04-29T10:35:21;9.90;;;5.63;;
21665;SDS011;10994;45.486;9.190;2023-04-29T10:37:49;7.00;;;6.20;;
21665;SDS011;10994;45.486;9.190;2023-04-29T10:40:16;11.03;;;7.17;;
21665;SDS011;10994;45.486;9.190;2023-04-29T10:42:49;7.73;;;5.13;;
21665;SDS011;10994;45.486;9.190;2023-04-29T10:45:25;5.23;;;4.73;;
21665;SDS011;10994;45.486;9.190;2023-04-29T10:48:25;6.53;;;5.10;;
21665;SDS011;10994;45.486;9.190;2023-04-29T10:53:14;6.57;;;5.90;;
21665;SDS011;10994;45.486;9.190;2023-04-29T10:55:40;7.30;;;5.13;;
21665;SDS011;10994;45.486;9.190;2023-04-29T11:00:51;7.77;;;5.63;;
21665;SDS011;10994;45.486;9.190;2023-04-29T11:06:08;8.03;;;5.73;;
21665;SDS011;10994;45.486;9.190;2023-04-29T11:08:37;7.63;;;5.70;;
21665;SDS011;10994;45.486;9.190;2023-04-29T11:11:09;8.53;;;6.90;;
21665;SDS011;10994;45.486;9.190;2023-04-29T11:13:38;7.07;;;6.33;;
21665;SDS011;10994;45.486;9.190;2023-04-29T11:18:31;8.93;;;6.60;;
21665;SDS011;10994;45.486;9.190;2023-04-29T11:23:29;12.93;;;9.20;;
21665;SDS011;10994;45.486;9.190;2023-04-29T11:25:56;9.60;;;7.50;;
21665;SDS011;10994;45.486;9.190;2023-04-29T11:28:25;8.73;;;7.10;;
21665;SDS011;10994;45.486;9.190;2023-04-29T11:30:52;8.50;;;6.67;;
21665;SDS011;10994;45.486;9.190;2023-04-29T11:33:21;7.70;;;6.87;;
21665;SDS011;10994;45.486;9.190;2023-04-29T11:35:47;10.90;;;6.90;;
21665;SDS011;10994;45.486;9.190;2023-04-29T11:38:13;8.37;;;7.53;;
21665;SDS011;10994;45.486;9.190;2023-04-29T11:40:49;7.83;;;6.97;;
21665;SDS011;10994;45.486;9.190;2023-04-29T11:43:21;9.67;;;8.67;;
21665;SDS011;10994;45.486;9.190;2023-04-29T11:45:48;10.10;;;8.27;;
21665;SDS011;10994;45.486;9.190;2023-04-29T11:48:18;10.73;;;9.57;;
21665;SDS011;10994;45.486;9.190;2023-04-29T11:50:50;8.90;;;8.00;;
21665;SDS011;10994;45.486;9.190;2023-04-29T11:53:24;9.37;;;8.23;;
21665;SDS011;10994;45.486;9.190;2023-04-29T11:55:53;9.47;;;8.50;;
21665;SDS011;10994;45.486;9.190;2023-04-29T11:58:20;11.50;;;9.10;;
21665;SDS011;10994;45.486;9.190;2023-04-29T12:00:46;12.13;;;8.50;;
21665;SDS011;10994;45.486;9.190;2023-04-29T12:03:16;9.80;;;7.93;;
21665;SDS011;10994;45.486;9.190;2023-04-29T12:05:55;9.83;;;8.00;;
21665;SDS011;10994;45.486;9.190;2023-04-29T12:10:47;11.60;;;8.73;;
21665;SDS011;10994;45.486;9.190;2023-04-29T12:13:14;8.27;;;7.47;;
21665;SDS011;10994;45.486;9.190;2023-04-29T12:15:43;9.45;;;8.05;;
21665;SDS011;10994;45.486;9.190;2023-04-29T12:18:11;8.88;;;7.28;;
21665;SDS011;10994;45.486;9.190;2023-04-29T12:20:37;8.80;;;7.38;;
21665;SDS011;10994;45.486;9.190;2023-04-29T12:23:10;7.93;;;7.15;;
21665;SDS011;10994;45.486;9.190;2023-04-29T12:25:44;8.45;;;7.20;;
21665;SDS011;10994;45.486;9.190;2023-04-29T12:28:20;7.97;;;6.30;;
21665;SDS011;10994;45.486;9.190;2023-04-29T12:30:46;8.77;;;6.40;;
21665;SDS011;10994;45.486;9.190;2023-04-29T12:33:22;9.00;;;7.22;;
21665;SDS011;10994;45.486;9.190;2023-04-29T12:35:51;8.95;;;6.45;;
21665;SDS011;10994;45.486;9.190;2023-04-29T12:38:30;9.43;;;6.72;;
21665;SDS011;10994;45.486;9.190;2023-04-29T12:40:59;8.30;;;5.88;;
21665;SDS011;10994;45.486;9.190;2023-04-29T12:43:29;10.43;;;6.97;;
21665;SDS011;10994;45.486;9.190;2023-04-29T12:46:00;7.68;;;6.50;;
21665;SDS011;10994;45.486;9.190;2023-04-29T12:48:31;6.15;;;5.40;;
21665;SDS011;10994;45.486;9.190;2023-04-29T12:50:58;8.63;;;6.05;;
21665;SDS011;10994;45.486;9.190;2023-04-29T12:53:33;7.78;;;6.63;;
21665;SDS011;10994;45.486;9.190;2023-04-29T12:55:59;8.20;;;6.30;;
21665;SDS011;10994;45.486;9.190;2023-04-29T12:58:27;9.68;;;5.68;;
21665;SDS011;10994;45.486;9.190;2023-04-29T13:00:54;6.80;;;5.93;;
21665;SDS011;10994;45.486;9.190;2023-04-29T13:03:20;9.55;;;5.05;;
21665;SDS011;10994;45.486;9.190;2023-04-29T13:05:45;7.85;;;5.32;;
21665;SDS011;10994;45.486;9.190;2023-04-29T13:08:15;7.65;;;5.60;;
21665;SDS011;10994;45.486;9.190;2023-04-29T13:10:40;5.75;;;5.07;;
21665;SDS011;10994;45.486;9.190;2023-04-29T13:13:07;6.65;;;5.15;;
21665;SDS011;10994;45.486;9.190;2023-04-29T13:15:34;7.35;;;4.88;;
21665;SDS011;10994;45.486;9.190;2023-04-29T13:18:00;6.25;;;5.18;;
21665;SDS011;10994;45.486;9.190;2023-04-29T13:20:26;5.40;;;4.88;;
21665;SDS011;10994;45.486;9.190;2023-04-29T13:22:52;7.72;;;5.50;;
21665;SDS011;10994;45.486;9.190;2023-04-29T13:25:18;6.28;;;4.57;;
21665;SDS011;10994;45.486;9.190;2023-04-29T13:27:43;9.05;;;5.15;;
21665;SDS011;10994;45.486;9.190;2023-04-29T13:30:09;7.47;;;5.20;;
21665;SDS011;10994;45.486;9.190;2023-04-29T13:32:35;6.95;;;5.22;;
21665;SDS011;10994;45.486;9.190;2023-04-29T13:35:01;6.35;;;4.88;;
21665;SDS011;10994;45.486;9.190;2023-04-29T13:37:28;5.72;;;5.13;;
21665;SDS011;10994;45.486;9.190;2023-04-29T13:39:54;7.50;;;5.07;;
21665;SDS011;10994;45.486;9.190;2023-04-29T13:42:19;6.75;;;5.10;;
21665;SDS011;10994;45.486;9.190;2023-04-29T13:44:45;10.15;;;5.20;;
21665;SDS011;10994;45.486;9.190;2023-04-29T13:47:11;7.68;;;4.97;;
21665;SDS011;10994;45.486;9.190;2023-04-29T13:49:38;5.45;;;4.82;;
21665;SDS011;10994;45.486;9.190;2023-04-29T13:52:04;6.68;;;4.75;;
21665;SDS011;10994;45.486;9.190;2023-04-29T13:54:31;6.30;;;5.13;;
21665;SDS011;10994;45.486;9.190;2023-04-29T13:56:57;7.53;;;5.93;;
21665;SDS011;10994;45.486;9.190;2023-04-29T13:59:23;6.28;;;4.88;;
21665;SDS011;10994;45.486;9.190;2023-04-29T14:01:48;5.72;;;4.93;;
21665;SDS011;10994;45.486;9.190;2023-04-29T14:04:15;7.15;;;5.90;;
21665;SDS011;10994;45.486;9.190;2023-04-29T14:06:44;5.28;;;4.43;;
21665;SDS011;10994;45.486;9.190;2023-04-29T14:09:10;5.60;;;5.10;;
21665;SDS011;10994;45.486;9.190;2023-04-29T14:11:35;5.60;;;4.95;;
21665;SDS011;10994;45.486;9.190;2023-04-29T14:14:01;5.75;;;5.20;;
21665;SDS011;10994;45.486;9.190;2023-04-29T14:16:28;5.63;;;5.00;;
21665;SDS011;10994;45.486;9.190;2023-04-29T14:18:54;6.30;;;5.30;;
21665;SDS011;10994;45.486;9.190;2023-04-29T14:21:19;11.50;;;5.38;;
21665;SDS011;10994;45.486;9.190;2023-04-29T14:23:48;6.85;;;4.72;;
21665;SDS011;10994;45.486;9.190;2023-04-29T14:26:14;7.53;;;5.40;;
21665;SDS011;10994;45.486;9.190;2023-04-29T14:28:40;5.25;;;4.75;;
21665;SDS011;10994;45.486;9.190;2023-04-29T14:31:06;4.85;;;4.22;;
21665;SDS011;10994;45.486;9.190;2023-04-29T14:33:31;5.53;;;4.60;;
21665;SDS011;10994;45.486;9.190;2023-04-29T14:35:57;6.07;;;4.45;;
21665;SDS011;10994;45.486;9.190;2023-04-29T14:38:25;6.90;;;5.20;;
21665;SDS011;10994;45.486;9.190;2023-04-29T14:40:50;6.13;;;4.75;;
21665;SDS011;10994;45.486;9.190;2023-04-29T14:43:16;5.43;;;3.78;;
21665;SDS011;10994;45.486;9.190;2023-04-29T14:45:42;7.18;;;4.63;;
21665;SDS011;10994;45.486;9.190;2023-04-29T14:48:09;10.07;;;6.20;;
21665;SDS011;10994;45.486;9.190;2023-04-29T14:50:37;6.13;;;5.53;;
21665;SDS011;10994;45.486;9.190;2023-04-29T14:53:03;9.38;;;5.82;;
21665;SDS011;10994;45.486;9.190;2023-04-29T14:55:28;6.30;;;4.72;;
21665;SDS011;10994;45.486;9.190;2023-04-29T14:57:55;5.15;;;4.65;;
21665;SDS011;10994;45.486;9.190;2023-04-29T15:00:20;5.32;;;4.82;;
21665;SDS011;10994;45.486;9.190;2023-04-29T15:02:46;6.75;;;4.70;;
21665;SDS011;10994;45.486;9.190;2023-04-29T15:05:13;7.50;;;6.10;;
21665;SDS011;10994;45.486;9.190;2023-04-29T15:07:39;7.85;;;6.28;;
21665;SDS011;10994;45.486;9.190;2023-04-29T15:10:05;7.53;;;6.75;;
21665;SDS011;10994;45.486;9.190;2023-04-29T15:12:33;9.05;;;6.32;;
21665;SDS011;10994;45.486;9.190;2023-04-29T15:14:59;8.93;;;6.30;;
21665;SDS011;10994;45.486;9.190;2023-04-29T15:17:24;8.80;;;5.68;;
21665;SDS011;10994;45.486;9.190;2023-04-29T15:19:50;8.68;;;6.55;;
21665;SDS011;10994;45.486;9.190;2023-04-29T15:22:15;8.15;;;7.35;;
21665;SDS011;10994;45.486;9.190;2023-04-29T15:24:42;7.20;;;5.85;;